Randolph, Alabama
Current Conditions -  °F | °C
As of 9:53 AM on Saturday 25 Oct 2014 (Local Time) from KEET Reporting Station
Clear Clear  
Wind Chill: 18°   Ceiling: Unl
Heat Index: 18°   Visibility: 10mi
Dew Point: 11°   Wind: 0mph
Humidity: 61%   Direction: NA
Pressure: 30.13"   Gusts: NA
Location:  32.9°N, 86.91°W
Report Text: KEET 251453Z AUTO 00000KT 10SM CLR 18/11 A3013 RMK AO2 SLP200 T01830106 50009
Loading
Personal Weather Stations






























Interactive Weather Map
Tropical Storm Tracking
New forecast layout! Learn more

10-Day Weather Forecast

Advertisements
Track Severe Weather on mobile